KMMK 240453Z AUTO 00000KT 10SM CLR 10/09 A3033 RMK AO2 SLP272 T01000094 401830094